N612HS KBEC-KBEC
Flight info
| Callsign | N612HS |
|---|---|
| Flight time | 0h 6m |
| Altitude | 7000 |
| Route | LOCAL |
| Aircraft | BE36/L-BDFGLORY/S |
Departure
| Time | 2026-05-03 21:14 |
|---|---|
| Airport | Beech Factory Airport (KBEC) |
Arrival
| Time | 2026-05-03 21:20 |
|---|---|
| Airport | Beech Factory Airport (KBEC) |
| Time | Latitude | Longitude | Altitude | Speed | Heading |
|---|---|---|---|---|---|
| 2026-05-03 20:56 | 37.68983 | -97.21210 | 1390 ft | 0 kts | 89° |
| 2026-05-03 20:57 | 37.68989 | -97.21207 | 1390 ft | 2 kts | 349° |
| 2026-05-03 20:57 | 37.69013 | -97.21230 | 1388 ft | 7 kts | 290° |
| 2026-05-03 20:57 | 37.69028 | -97.21306 | 1388 ft | 11 kts | 276° |
| 2026-05-03 20:57 | 37.69028 | -97.21322 | 1388 ft | 0 kts | 268° |
| 2026-05-03 20:59 | 37.69032 | -97.21342 | 1389 ft | 9 kts | 285° |
| 2026-05-03 20:59 | 37.69085 | -97.21429 | 1397 ft | 18 kts | 13° |
| 2026-05-03 20:59 | 37.69224 | -97.21436 | 1402 ft | 22 kts | 352° |
| 2026-05-03 20:59 | 37.69287 | -97.21456 | 1398 ft | 0 kts | 355° |
| 2026-05-03 21:00 | 37.69293 | -97.21453 | 1398 ft | 9 kts | 34° |
| 2026-05-03 21:00 | 37.69410 | -97.21391 | 1398 ft | 44 kts | 8° |
| 2026-05-03 21:00 | 37.69787 | -97.21228 | 1400 ft | 36 kts | 4° |
| 2026-05-03 21:00 | 37.70034 | -97.21176 | 1402 ft | 31 kts | 33° |
| 2026-05-03 21:01 | 37.69970 | -97.21175 | 1404 ft | 32 kts | 208° |
| 2026-05-03 21:01 | 37.69629 | -97.21307 | 1400 ft | 62 kts | 191° |
| 2026-05-03 21:01 | 37.69315 | -97.21430 | 1403 ft | 17 kts | 245° |
| 2026-05-03 21:01 | 37.69320 | -97.21458 | 1402 ft | 0 kts | 343° |
| 2026-05-03 21:04 | 37.69304 | -97.21453 | 1397 ft | 11 kts | 165° |
| 2026-05-03 21:04 | 37.69216 | -97.21406 | 1402 ft | 2 kts | 116° |
| 2026-05-03 21:04 | 37.69211 | -97.21405 | 1396 ft | 3 kts | 228° |
| 2026-05-03 21:04 | 37.69214 | -97.21428 | 1401 ft | 0 kts | 346° |
| 2026-05-03 21:11 | 37.69215 | -97.21428 | 1396 ft | 2 kts | 344° |
| 2026-05-03 21:11 | 37.69311 | -97.21466 | 1406 ft | 24 kts | 349° |
| 2026-05-03 21:12 | 37.69499 | -97.21462 | 1399 ft | 30 kts | 11° |
| 2026-05-03 21:12 | 37.69714 | -97.21416 | 1403 ft | 36 kts | 11° |
| 2026-05-03 21:12 | 37.69969 | -97.21345 | 1400 ft | 34 kts | 14° |
| 2026-05-03 21:12 | 37.70065 | -97.21314 | 1403 ft | 2 kts | 288° |
| 2026-05-03 21:13 | 37.70062 | -97.21320 | 1403 ft | 0 kts | 196° |
| 2026-05-03 21:13 | 37.69923 | -97.21370 | 1399 ft | 42 kts | 191° |
| 2026-05-03 21:13 | 37.69560 | -97.21449 | 1418 ft | 60 kts | 198° |
| 2026-05-03 21:14 | 37.69079 | -97.21568 | 1516 ft | 86 kts | 198° |
| 2026-05-03 21:14 | 37.68439 | -97.21757 | 1749 ft | 100 kts | 196° |
| 2026-05-03 21:14 | 37.67750 | -97.21932 | 2077 ft | 103 kts | 173° |
| 2026-05-03 21:14 | 37.67364 | -97.21105 | 2148 ft | 129 kts | 99° |
| 2026-05-03 21:15 | 37.67351 | -97.20001 | 2147 ft | 123 kts | 94° |
| 2026-05-03 21:15 | 37.67878 | -97.19191 | 2133 ft | 128 kts | 15° |
| 2026-05-03 21:15 | 37.68717 | -97.18834 | 2211 ft | 128 kts | 15° |
| 2026-05-03 21:15 | 37.69578 | -97.18505 | 2276 ft | 134 kts | 13° |
| 2026-05-03 21:16 | 37.70503 | -97.18185 | 2271 ft | 140 kts | 8° |
| 2026-05-03 21:16 | 37.71476 | -97.18005 | 2267 ft | 142 kts | 4° |
| 2026-05-03 21:16 | 37.72447 | -97.17794 | 2276 ft | 145 kts | 6° |
| 2026-05-03 21:16 | 37.73457 | -97.17582 | 2264 ft | 146 kts | 5° |
| 2026-05-03 21:17 | 37.74296 | -97.17926 | 2271 ft | 112 kts | 300° |
| 2026-05-03 21:17 | 37.74435 | -97.18415 | 2269 ft | 75 kts | 268° |
| 2026-05-03 21:17 | 37.74677 | -97.19228 | 2271 ft | 72 kts | 274° |
| 2026-05-03 21:17 | 37.74867 | -97.19851 | 2245 ft | 76 kts | 265° |
| 2026-05-03 21:18 | 37.74569 | -97.20178 | 2225 ft | 72 kts | 188° |
| 2026-05-03 21:18 | 37.74061 | -97.20258 | 2134 ft | 72 kts | 200° |
| 2026-05-03 21:18 | 37.73577 | -97.20370 | 2088 ft | 70 kts | 205° |
| 2026-05-03 21:18 | 37.73103 | -97.20546 | 1979 ft | 68 kts | 197° |
| 2026-05-03 21:19 | 37.72649 | -97.20653 | 1913 ft | 67 kts | 195° |
| 2026-05-03 21:19 | 37.72199 | -97.20783 | 1846 ft | 66 kts | 192° |
| 2026-05-03 21:19 | 37.71714 | -97.20879 | 1782 ft | 74 kts | 204° |
| 2026-05-03 21:19 | 37.71193 | -97.21020 | 1656 ft | 76 kts | 189° |
| 2026-05-03 21:20 | 37.70740 | -97.21142 | 1506 ft | 65 kts | 195° |
| 2026-05-03 21:20 | 37.70442 | -97.21220 | 1441 ft | 65 kts | 189° |
| 2026-05-03 21:20 | 37.70092 | -97.21313 | 1404 ft | 40 kts | 193° |
| 2026-05-03 21:20 | 37.69979 | -97.21354 | 1401 ft | 34 kts | 212° |